sensor_id;sensor_type;location;lat;lon;timestamp;temperature;humidity
20487;DHT22;10402;49.012;8.370;2023-06-14T00:01:43;19.40;44.50
20487;DHT22;10402;49.012;8.370;2023-06-14T00:04:11;19.40;44.60
20487;DHT22;10402;49.012;8.370;2023-06-14T00:06:37;19.30;44.70
20487;DHT22;10402;49.012;8.370;2023-06-14T00:09:03;19.30;44.80
20487;DHT22;10402;49.012;8.370;2023-06-14T00:11:30;19.30;45.00
20487;DHT22;10402;49.012;8.370;2023-06-14T00:13:56;19.30;45.10
20487;DHT22;10402;49.012;8.370;2023-06-14T00:16:21;19.30;45.20
20487;DHT22;10402;49.012;8.370;2023-06-14T00:18:48;19.30;45.30
20487;DHT22;10402;49.012;8.370;2023-06-14T00:21:13;19.20;45.20
20487;DHT22;10402;49.012;8.370;2023-06-14T00:23:39;19.10;45.40
20487;DHT22;10402;49.012;8.370;2023-06-14T00:26:05;19.00;45.60
20487;DHT22;10402;49.012;8.370;2023-06-14T00:28:30;19.00;45.80
20487;DHT22;10402;49.012;8.370;2023-06-14T00:30:56;18.90;45.90
20487;DHT22;10402;49.012;8.370;2023-06-14T00:33:21;19.00;46.00
20487;DHT22;10402;49.012;8.370;2023-06-14T00:35:47;18.90;46.00
20487;DHT22;10402;49.012;8.370;2023-06-14T00:38:13;18.90;46.10
20487;DHT22;10402;49.012;8.370;2023-06-14T00:40:39;18.90;46.20
20487;DHT22;10402;49.012;8.370;2023-06-14T00:43:04;18.90;46.20
20487;DHT22;10402;49.012;8.370;2023-06-14T00:45:31;18.80;46.40
20487;DHT22;10402;49.012;8.370;2023-06-14T00:48:01;18.70;46.50
20487;DHT22;10402;49.012;8.370;2023-06-14T00:50:28;18.70;46.60
20487;DHT22;10402;49.012;8.370;2023-06-14T00:52:55;18.60;46.60
20487;DHT22;10402;49.012;8.370;2023-06-14T00:55:21;18.60;46.80
20487;DHT22;10402;49.012;8.370;2023-06-14T00:57:47;18.50;46.90
20487;DHT22;10402;49.012;8.370;2023-06-14T01:00:13;18.60;47.20
20487;DHT22;10402;49.012;8.370;2023-06-14T01:02:40;18.50;47.10
20487;DHT22;10402;49.012;8.370;2023-06-14T01:05:07;18.40;47.20
20487;DHT22;10402;49.012;8.370;2023-06-14T01:15:39;18.40;47.30
20487;DHT22;10402;49.012;8.370;2023-06-14T01:18:06;18.30;47.30
20487;DHT22;10402;49.012;8.370;2023-06-14T01:20:33;18.40;47.40
20487;DHT22;10402;49.012;8.370;2023-06-14T01:23:02;18.40;47.40
20487;DHT22;10402;49.012;8.370;2023-06-14T01:25:27;18.40;47.40
20487;DHT22;10402;49.012;8.370;2023-06-14T01:27:58;18.40;47.30
20487;DHT22;10402;49.012;8.370;2023-06-14T01:30:24;18.40;47.30
20487;DHT22;10402;49.012;8.370;2023-06-14T01:32:52;18.40;47.30
20487;DHT22;10402;49.012;8.370;2023-06-14T01:35:18;18.40;47.30
20487;DHT22;10402;49.012;8.370;2023-06-14T01:37:47;18.40;47.40
20487;DHT22;10402;49.012;8.370;2023-06-14T01:40:14;18.30;47.40
20487;DHT22;10402;49.012;8.370;2023-06-14T01:42:41;18.30;47.50
20487;DHT22;10402;49.012;8.370;2023-06-14T01:45:09;18.20;47.60
20487;DHT22;10402;49.012;8.370;2023-06-14T01:47:35;18.10;47.60
20487;DHT22;10402;49.012;8.370;2023-06-14T01:50:04;18.20;47.70
20487;DHT22;10402;49.012;8.370;2023-06-14T01:52:30;18.10;47.60
20487;DHT22;10402;49.012;8.370;2023-06-14T01:54:56;18.10;47.60
20487;DHT22;10402;49.012;8.370;2023-06-14T01:57:24;18.10;47.70
20487;DHT22;10402;49.012;8.370;2023-06-14T01:59:50;18.10;47.70
20487;DHT22;10402;49.012;8.370;2023-06-14T02:02:16;18.10;48.30
20487;DHT22;10402;49.012;8.370;2023-06-14T02:04:42;18.00;47.60
20487;DHT22;10402;49.012;8.370;2023-06-14T02:07:07;18.00;47.80
20487;DHT22;10402;49.012;8.370;2023-06-14T02:09:34;18.00;47.80
20487;DHT22;10402;49.012;8.370;2023-06-14T02:12:00;18.00;47.70
20487;DHT22;10402;49.012;8.370;2023-06-14T02:14:25;18.10;47.80
20487;DHT22;10402;49.012;8.370;2023-06-14T02:16:51;18.00;47.90
20487;DHT22;10402;49.012;8.370;2023-06-14T02:19:19;17.90;48.00
20487;DHT22;10402;49.012;8.370;2023-06-14T02:21:44;17.90;48.20
20487;DHT22;10402;49.012;8.370;2023-06-14T02:24:10;17.80;48.30
20487;DHT22;10402;49.012;8.370;2023-06-14T02:26:36;17.80;48.30
20487;DHT22;10402;49.012;8.370;2023-06-14T02:29:08;17.80;48.30
20487;DHT22;10402;49.012;8.370;2023-06-14T02:31:36;17.80;48.30
20487;DHT22;10402;49.012;8.370;2023-06-14T02:34:02;17.70;48.40
20487;DHT22;10402;49.012;8.370;2023-06-14T02:36:28;17.80;48.50
20487;DHT22;10402;49.012;8.370;2023-06-14T02:38:55;17.80;48.50
20487;DHT22;10402;49.012;8.370;2023-06-14T02:41:23;17.80;48.40
20487;DHT22;10402;49.012;8.370;2023-06-14T02:43:49;17.90;48.50
20487;DHT22;10402;49.012;8.370;2023-06-14T02:46:14;17.80;48.40
20487;DHT22;10402;49.012;8.370;2023-06-14T02:48:40;17.80;48.40
20487;DHT22;10402;49.012;8.370;2023-06-14T02:51:06;17.80;48.50
20487;DHT22;10402;49.012;8.370;2023-06-14T02:53:33;17.70;48.50
20487;DHT22;10402;49.012;8.370;2023-06-14T02:55:59;17.80;48.80
20487;DHT22;10402;49.012;8.370;2023-06-14T02:58:24;17.70;48.80
20487;DHT22;10402;49.012;8.370;2023-06-14T03:00:50;17.70;48.90
20487;DHT22;10402;49.012;8.370;2023-06-14T03:03:18;17.60;48.90
20487;DHT22;10402;49.012;8.370;2023-06-14T03:05:45;17.60;48.90
20487;DHT22;10402;49.012;8.370;2023-06-14T03:08:13;17.60;49.30
20487;DHT22;10402;49.012;8.370;2023-06-14T03:10:46;17.50;49.20
20487;DHT22;10402;49.012;8.370;2023-06-14T03:13:13;17.40;49.30
20487;DHT22;10402;49.012;8.370;2023-06-14T03:15:39;17.40;49.40
20487;DHT22;10402;49.012;8.370;2023-06-14T03:18:10;17.40;49.60
20487;DHT22;10402;49.012;8.370;2023-06-14T03:20:37;17.40;49.70
20487;DHT22;10402;49.012;8.370;2023-06-14T03:23:03;17.40;49.90
20487;DHT22;10402;49.012;8.370;2023-06-14T03:25:29;17.40;49.90
20487;DHT22;10402;49.012;8.370;2023-06-14T03:27:56;17.40;50.00
20487;DHT22;10402;49.012;8.370;2023-06-14T03:30:21;17.30;50.00
20487;DHT22;10402;49.012;8.370;2023-06-14T03:32:47;17.30;50.20
20487;DHT22;10402;49.012;8.370;2023-06-14T03:35:12;17.30;50.40
20487;DHT22;10402;49.012;8.370;2023-06-14T03:37:43;17.30;50.40
20487;DHT22;10402;49.012;8.370;2023-06-14T03:40:09;17.20;50.90
20487;DHT22;10402;49.012;8.370;2023-06-14T03:42:35;17.30;50.40
20487;DHT22;10402;49.012;8.370;2023-06-14T03:45:01;17.20;50.40
20487;DHT22;10402;49.012;8.370;2023-06-14T03:47:26;17.20;50.40
20487;DHT22;10402;49.012;8.370;2023-06-14T03:49:52;17.20;50.40
20487;DHT22;10402;49.012;8.370;2023-06-14T03:52:18;17.30;50.50
20487;DHT22;10402;49.012;8.370;2023-06-14T03:54:43;17.30;50.50
20487;DHT22;10402;49.012;8.370;2023-06-14T03:57:10;17.20;50.50
20487;DHT22;10402;49.012;8.370;2023-06-14T03:59:36;17.20;50.60
20487;DHT22;10402;49.012;8.370;2023-06-14T04:02:02;17.20;50.70
20487;DHT22;10402;49.012;8.370;2023-06-14T04:04:27;17.10;50.80
20487;DHT22;10402;49.012;8.370;2023-06-14T04:06:55;17.00;50.80
20487;DHT22;10402;49.012;8.370;2023-06-14T04:09:22;17.00;50.90
20487;DHT22;10402;49.012;8.370;2023-06-14T04:11:52;17.00;51.00
20487;DHT22;10402;49.012;8.370;2023-06-14T04:14:19;17.00;51.00
20487;DHT22;10402;49.012;8.370;2023-06-14T04:16:46;17.10;51.00
20487;DHT22;10402;49.012;8.370;2023-06-14T04:19:11;17.10;50.90
20487;DHT22;10402;49.012;8.370;2023-06-14T04:21:37;17.20;50.90
20487;DHT22;10402;49.012;8.370;2023-06-14T04:24:03;17.10;50.90
20487;DHT22;10402;49.012;8.370;2023-06-14T04:26:29;17.10;50.90
20487;DHT22;10402;49.012;8.370;2023-06-14T04:28:55;17.10;50.90
20487;DHT22;10402;49.012;8.370;2023-06-14T04:31:22;17.20;51.10
20487;DHT22;10402;49.012;8.370;2023-06-14T04:33:50;17.20;51.20
20487;DHT22;10402;49.012;8.370;2023-06-14T04:36:18;17.20;51.30
20487;DHT22;10402;49.012;8.370;2023-06-14T04:38:44;17.30;51.30
20487;DHT22;10402;49.012;8.370;2023-06-14T04:41:12;17.30;51.40
20487;DHT22;10402;49.012;8.370;2023-06-14T04:43:38;17.30;51.40
20487;DHT22;10402;49.012;8.370;2023-06-14T04:46:06;17.30;51.60
20487;DHT22;10402;49.012;8.370;2023-06-14T04:48:37;17.30;51.70
20487;DHT22;10402;49.012;8.370;2023-06-14T04:51:03;17.40;51.70
20487;DHT22;10402;49.012;8.370;2023-06-14T04:53:29;17.40;51.80
20487;DHT22;10402;49.012;8.370;2023-06-14T04:55:55;17.40;51.90
20487;DHT22;10402;49.012;8.370;2023-06-14T04:58:20;17.40;51.80
20487;DHT22;10402;49.012;8.370;2023-06-14T05:00:46;17.50;51.80
20487;DHT22;10402;49.012;8.370;2023-06-14T05:03:11;17.50;51.80
20487;DHT22;10402;49.012;8.370;2023-06-14T05:05:39;17.60;51.80
20487;DHT22;10402;49.012;8.370;2023-06-14T05:08:05;17.70;51.70
20487;DHT22;10402;49.012;8.370;2023-06-14T05:10:31;17.70;51.60
20487;DHT22;10402;49.012;8.370;2023-06-14T05:12:57;17.70;51.60
20487;DHT22;10402;49.012;8.370;2023-06-14T05:15:22;17.80;51.70
20487;DHT22;10402;49.012;8.370;2023-06-14T05:17:50;17.80;51.70
20487;DHT22;10402;49.012;8.370;2023-06-14T05:20:21;17.80;51.90
20487;DHT22;10402;49.012;8.370;2023-06-14T05:22:48;17.80;52.10
20487;DHT22;10402;49.012;8.370;2023-06-14T05:25:15;17.70;52.00
20487;DHT22;10402;49.012;8.370;2023-06-14T05:27:40;17.80;52.30
20487;DHT22;10402;49.012;8.370;2023-06-14T05:30:07;17.80;52.20
20487;DHT22;10402;49.012;8.370;2023-06-14T05:32:33;17.80;52.10
20487;DHT22;10402;49.012;8.370;2023-06-14T05:34:59;17.80;52.10
20487;DHT22;10402;49.012;8.370;2023-06-14T05:37:25;17.90;52.20
20487;DHT22;10402;49.012;8.370;2023-06-14T05:39:50;17.80;52.20
20487;DHT22;10402;49.012;8.370;2023-06-14T05:42:16;17.90;52.20
20487;DHT22;10402;49.012;8.370;2023-06-14T05:44:41;18.00;52.10
20487;DHT22;10402;49.012;8.370;2023-06-14T05:47:07;18.20;52.10
20487;DHT22;10402;49.012;8.370;2023-06-14T05:49:32;18.30;51.90
20487;DHT22;10402;49.012;8.370;2023-06-14T05:51:58;18.30;51.90
20487;DHT22;10402;49.012;8.370;2023-06-14T05:54:23;18.30;51.90
20487;DHT22;10402;49.012;8.370;2023-06-14T05:56:49;18.30;51.80
20487;DHT22;10402;49.012;8.370;2023-06-14T05:59:14;18.30;51.70
20487;DHT22;10402;49.012;8.370;2023-06-14T06:01:40;18.40;51.70
20487;DHT22;10402;49.012;8.370;2023-06-14T06:04:06;18.50;51.70
20487;DHT22;10402;49.012;8.370;2023-06-14T06:06:31;18.50;51.70
20487;DHT22;10402;49.012;8.370;2023-06-14T06:08:57;18.50;51.60
20487;DHT22;10402;49.012;8.370;2023-06-14T06:11:23;18.50;51.50
20487;DHT22;10402;49.012;8.370;2023-06-14T06:13:49;18.60;51.60
20487;DHT22;10402;49.012;8.370;2023-06-14T06:16:15;18.60;51.60
20487;DHT22;10402;49.012;8.370;2023-06-14T06:18:40;18.60;51.50
20487;DHT22;10402;49.012;8.370;2023-06-14T06:21:06;18.70;51.50
20487;DHT22;10402;49.012;8.370;2023-06-14T06:23:32;18.80;51.50
20487;DHT22;10402;49.012;8.370;2023-06-14T06:25:57;18.80;51.40
20487;DHT22;10402;49.012;8.370;2023-06-14T06:28:23;18.80;51.40
20487;DHT22;10402;49.012;8.370;2023-06-14T06:30:48;18.80;51.60
20487;DHT22;10402;49.012;8.370;2023-06-14T06:33:14;18.80;51.60
20487;DHT22;10402;49.012;8.370;2023-06-14T06:35:39;18.90;51.60
20487;DHT22;10402;49.012;8.370;2023-06-14T06:38:05;18.90;52.20
20487;DHT22;10402;49.012;8.370;2023-06-14T06:40:31;18.90;51.80
20487;DHT22;10402;49.012;8.370;2023-06-14T06:42:56;18.90;51.70
20487;DHT22;10402;49.012;8.370;2023-06-14T06:45:22;18.90;51.80
20487;DHT22;10402;49.012;8.370;2023-06-14T06:47:49;18.90;51.70
20487;DHT22;10402;49.012;8.370;2023-06-14T06:50:15;19.00;51.80
20487;DHT22;10402;49.012;8.370;2023-06-14T06:52:41;19.00;51.80
20487;DHT22;10402;49.012;8.370;2023-06-14T06:55:07;19.00;51.80
20487;DHT22;10402;49.012;8.370;2023-06-14T06:57:34;19.10;51.70
20487;DHT22;10402;49.012;8.370;2023-06-14T06:59:59;19.10;51.70
20487;DHT22;10402;49.012;8.370;2023-06-14T07:02:25;19.30;51.70
20487;DHT22;10402;49.012;8.370;2023-06-14T07:04:50;19.40;51.60
20487;DHT22;10402;49.012;8.370;2023-06-14T07:07:17;19.50;51.40
20487;DHT22;10402;49.012;8.370;2023-06-14T07:09:42;19.50;51.20
20487;DHT22;10402;49.012;8.370;2023-06-14T07:12:08;19.60;51.10
20487;DHT22;10402;49.012;8.370;2023-06-14T07:14:34;19.70;51.10
20487;DHT22;10402;49.012;8.370;2023-06-14T07:16:59;19.80;51.00
20487;DHT22;10402;49.012;8.370;2023-06-14T07:19:25;19.80;50.70
20487;DHT22;10402;49.012;8.370;2023-06-14T07:21:50;19.90;50.70
20487;DHT22;10402;49.012;8.370;2023-06-14T07:24:16;19.90;50.70
20487;DHT22;10402;49.012;8.370;2023-06-14T07:26:42;20.00;50.80
20487;DHT22;10402;49.012;8.370;2023-06-14T07:29:07;20.10;50.90
20487;DHT22;10402;49.012;8.370;2023-06-14T07:31:33;20.10;50.60
20487;DHT22;10402;49.012;8.370;2023-06-14T07:33:58;20.20;50.60
20487;DHT22;10402;49.012;8.370;2023-06-14T07:36:24;20.30;50.50
20487;DHT22;10402;49.012;8.370;2023-06-14T07:38:49;20.40;50.50
20487;DHT22;10402;49.012;8.370;2023-06-14T07:41:16;20.50;50.40
20487;DHT22;10402;49.012;8.370;2023-06-14T07:43:41;20.50;50.20
20487;DHT22;10402;49.012;8.370;2023-06-14T07:46:07;20.60;50.20
20487;DHT22;10402;49.012;8.370;2023-06-14T07:48:33;20.70;50.20
20487;DHT22;10402;49.012;8.370;2023-06-14T07:50:59;20.70;50.00
20487;DHT22;10402;49.012;8.370;2023-06-14T07:53:26;20.80;50.00
20487;DHT22;10402;49.012;8.370;2023-06-14T07:55:52;20.80;49.90
20487;DHT22;10402;49.012;8.370;2023-06-14T07:58:17;20.80;49.90
20487;DHT22;10402;49.012;8.370;2023-06-14T08:00:43;20.90;49.70
20487;DHT22;10402;49.012;8.370;2023-06-14T08:03:08;20.90;49.50
20487;DHT22;10402;49.012;8.370;2023-06-14T08:05:34;21.00;49.50
20487;DHT22;10402;49.012;8.370;2023-06-14T08:08:00;21.00;49.30
20487;DHT22;10402;49.012;8.370;2023-06-14T08:10:26;21.10;49.10
20487;DHT22;10402;49.012;8.370;2023-06-14T08:12:51;21.10;48.90
20487;DHT22;10402;49.012;8.370;2023-06-14T08:15:17;21.20;49.00
20487;DHT22;10402;49.012;8.370;2023-06-14T08:17:43;21.30;48.80
20487;DHT22;10402;49.012;8.370;2023-06-14T08:20:09;21.30;48.70
20487;DHT22;10402;49.012;8.370;2023-06-14T08:22:36;21.30;48.60
20487;DHT22;10402;49.012;8.370;2023-06-14T08:25:02;21.40;48.60
20487;DHT22;10402;49.012;8.370;2023-06-14T08:27:29;21.40;48.50
20487;DHT22;10402;49.012;8.370;2023-06-14T08:29:55;21.50;48.50
20487;DHT22;10402;49.012;8.370;2023-06-14T08:32:21;21.60;48.40
20487;DHT22;10402;49.012;8.370;2023-06-14T08:34:47;21.70;48.30
20487;DHT22;10402;49.012;8.370;2023-06-14T08:37:12;21.70;48.20
20487;DHT22;10402;49.012;8.370;2023-06-14T08:39:38;21.80;48.10
20487;DHT22;10402;49.012;8.370;2023-06-14T08:42:06;21.80;48.00
20487;DHT22;10402;49.012;8.370;2023-06-14T08:44:33;21.90;48.00
20487;DHT22;10402;49.012;8.370;2023-06-14T08:46:59;22.00;48.00
20487;DHT22;10402;49.012;8.370;2023-06-14T08:49:26;22.10;48.00
20487;DHT22;10402;49.012;8.370;2023-06-14T08:51:58;22.20;47.90
20487;DHT22;10402;49.012;8.370;2023-06-14T08:54:28;22.20;47.70
20487;DHT22;10402;49.012;8.370;2023-06-14T08:56:59;22.20;47.60
20487;DHT22;10402;49.012;8.370;2023-06-14T08:59:28;22.30;47.60
20487;DHT22;10402;49.012;8.370;2023-06-14T09:01:56;22.40;47.60
20487;DHT22;10402;49.012;8.370;2023-06-14T09:04:22;22.40;47.40
20487;DHT22;10402;49.012;8.370;2023-06-14T09:06:49;22.50;47.30
20487;DHT22;10402;49.012;8.370;2023-06-14T09:09:22;22.50;47.20
20487;DHT22;10402;49.012;8.370;2023-06-14T09:11:50;22.50;47.20
20487;DHT22;10402;49.012;8.370;2023-06-14T09:16:42;22.70;46.90
20487;DHT22;10402;49.012;8.370;2023-06-14T09:19:08;22.70;46.80
20487;DHT22;10402;49.012;8.370;2023-06-14T09:21:34;22.70;46.70
20487;DHT22;10402;49.012;8.370;2023-06-14T09:24:02;22.80;46.70
20487;DHT22;10402;49.012;8.370;2023-06-14T09:26:29;22.80;46.70
20487;DHT22;10402;49.012;8.370;2023-06-14T09:28:55;22.90;46.70
20487;DHT22;10402;49.012;8.370;2023-06-14T09:31:21;23.00;46.70
20487;DHT22;10402;49.012;8.370;2023-06-14T09:33:49;23.10;46.70
20487;DHT22;10402;49.012;8.370;2023-06-14T09:36:22;23.10;46.50
20487;DHT22;10402;49.012;8.370;2023-06-14T09:39:02;23.20;46.50
20487;DHT22;10402;49.012;8.370;2023-06-14T09:41:32;23.20;46.20
20487;DHT22;10402;49.012;8.370;2023-06-14T09:44:00;23.30;46.10
20487;DHT22;10402;49.012;8.370;2023-06-14T09:46:29;23.40;46.10
20487;DHT22;10402;49.012;8.370;2023-06-14T09:48:57;23.40;46.00
20487;DHT22;10402;49.012;8.370;2023-06-14T09:51:24;23.40;45.80
20487;DHT22;10402;49.012;8.370;2023-06-14T09:53:50;23.40;45.70
20487;DHT22;10402;49.012;8.370;2023-06-14T09:56:29;23.50;45.70
20487;DHT22;10402;49.012;8.370;2023-06-14T09:58:57;23.40;45.40
20487;DHT22;10402;49.012;8.370;2023-06-14T10:01:27;23.40;45.30
20487;DHT22;10402;49.012;8.370;2023-06-14T10:04:00;23.40;45.30
20487;DHT22;10402;49.012;8.370;2023-06-14T10:06:28;23.50;45.20
20487;DHT22;10402;49.012;8.370;2023-06-14T10:08:56;23.60;45.20
20487;DHT22;10402;49.012;8.370;2023-06-14T10:11:23;23.60;44.90
20487;DHT22;10402;49.012;8.370;2023-06-14T10:13:49;23.60;44.70
20487;DHT22;10402;49.012;8.370;2023-06-14T10:16:23;23.70;44.60
20487;DHT22;10402;49.012;8.370;2023-06-14T10:19:20;23.70;44.40
20487;DHT22;10402;49.012;8.370;2023-06-14T10:21:57;23.80;44.40
20487;DHT22;10402;49.012;8.370;2023-06-14T10:24:32;23.80;44.00
20487;DHT22;10402;49.012;8.370;2023-06-14T10:26:58;23.80;43.90
20487;DHT22;10402;49.012;8.370;2023-06-14T10:29:28;23.80;43.80
20487;DHT22;10402;49.012;8.370;2023-06-14T10:31:58;23.60;43.50
20487;DHT22;10402;49.012;8.370;2023-06-14T10:34:28;23.50;43.60
20487;DHT22;10402;49.012;8.370;2023-06-14T10:37:02;23.50;43.60
20487;DHT22;10402;49.012;8.370;2023-06-14T10:39:29;23.60;43.50
20487;DHT22;10402;49.012;8.370;2023-06-14T10:41:56;23.60;43.30
20487;DHT22;10402;49.012;8.370;2023-06-14T10:46:54;23.60;43.10
20487;DHT22;10402;49.012;8.370;2023-06-14T10:49:22;23.70;43.20
20487;DHT22;10402;49.012;8.370;2023-06-14T10:52:02;23.60;42.90
20487;DHT22;10402;49.012;8.370;2023-06-14T10:54:28;23.70;42.80
20487;DHT22;10402;49.012;8.370;2023-06-14T10:56:53;23.80;42.80
20487;DHT22;10402;49.012;8.370;2023-06-14T10:59:20;23.90;42.70
20487;DHT22;10402;49.012;8.370;2023-06-14T11:10:41;24.20;42.30
20487;DHT22;10402;49.012;8.370;2023-06-14T11:13:08;24.10;42.30
20487;DHT22;10402;49.012;8.370;2023-06-14T11:15:36;24.00;42.40
20487;DHT22;10402;49.012;8.370;2023-06-14T11:18:03;24.00;42.40
20487;DHT22;10402;49.012;8.370;2023-06-14T11:20:31;24.00;42.50
20487;DHT22;10402;49.012;8.370;2023-06-14T11:22:57;23.90;42.60
20487;DHT22;10402;49.012;8.370;2023-06-14T11:25:23;23.90;42.80
20487;DHT22;10402;49.012;8.370;2023-06-14T11:27:52;23.90;42.90
20487;DHT22;10402;49.012;8.370;2023-06-14T11:30:17;23.90;43.00
20487;DHT22;10402;49.012;8.370;2023-06-14T11:32:50;23.90;42.90
20487;DHT22;10402;49.012;8.370;2023-06-14T11:35:16;23.90;42.90
20487;DHT22;10402;49.012;8.370;2023-06-14T11:37:42;23.90;43.00
20487;DHT22;10402;49.012;8.370;2023-06-14T11:40:10;23.90;42.80
20487;DHT22;10402;49.012;8.370;2023-06-14T11:42:38;23.90;42.90
20487;DHT22;10402;49.012;8.370;2023-06-14T11:45:06;23.80;43.00
20487;DHT22;10402;49.012;8.370;2023-06-14T11:47:33;23.80;43.00
20487;DHT22;10402;49.012;8.370;2023-06-14T11:49:59;23.90;43.00
20487;DHT22;10402;49.012;8.370;2023-06-14T11:52:25;23.90;42.90
20487;DHT22;10402;49.012;8.370;2023-06-14T11:54:51;24.00;42.90
20487;DHT22;10402;49.012;8.370;2023-06-14T11:57:20;24.20;42.90
20487;DHT22;10402;49.012;8.370;2023-06-14T11:59:46;24.30;42.80
20487;DHT22;10402;49.012;8.370;2023-06-14T12:02:15;24.30;42.70
20487;DHT22;10402;49.012;8.370;2023-06-14T12:04:42;24.40;42.60
20487;DHT22;10402;49.012;8.370;2023-06-14T12:07:12;24.40;42.70
20487;DHT22;10402;49.012;8.370;2023-06-14T12:10:25;24.30;42.50
20487;DHT22;10402;49.012;8.370;2023-06-14T12:12:26;24.30;42.30
20487;DHT22;10402;49.012;8.370;2023-06-14T12:14:53;24.20;42.30
20487;DHT22;10402;49.012;8.370;2023-06-14T12:17:19;24.20;42.30
20487;DHT22;10402;49.012;8.370;2023-06-14T12:19:46;24.30;42.20
20487;DHT22;10402;49.012;8.370;2023-06-14T12:22:14;24.30;42.20
20487;DHT22;10402;49.012;8.370;2023-06-14T12:24:44;24.30;42.20
20487;DHT22;10402;49.012;8.370;2023-06-14T12:27:10;24.40;42.70
20487;DHT22;10402;49.012;8.370;2023-06-14T12:29:41;24.40;41.90
20487;DHT22;10402;49.012;8.370;2023-06-14T12:32:09;24.40;41.90
20487;DHT22;10402;49.012;8.370;2023-06-14T12:34:35;24.50;41.70
20487;DHT22;10402;49.012;8.370;2023-06-14T12:37:01;24.60;41.50
20487;DHT22;10402;49.012;8.370;2023-06-14T12:39:26;24.60;41.20
20487;DHT22;10402;49.012;8.370;2023-06-14T12:41:53;24.70;41.90
20487;DHT22;10402;49.012;8.370;2023-06-14T12:44:19;24.80;41.00
20487;DHT22;10402;49.012;8.370;2023-06-14T12:46:45;24.80;40.70
20487;DHT22;10402;49.012;8.370;2023-06-14T12:49:11;24.80;40.60
20487;DHT22;10402;49.012;8.370;2023-06-14T12:51:40;24.80;40.60
20487;DHT22;10402;49.012;8.370;2023-06-14T12:54:06;24.80;40.40
20487;DHT22;10402;49.012;8.370;2023-06-14T12:56:32;24.80;40.30
20487;DHT22;10402;49.012;8.370;2023-06-14T12:58:58;24.80;40.40
20487;DHT22;10402;49.012;8.370;2023-06-14T13:01:24;24.80;40.60
20487;DHT22;10402;49.012;8.370;2023-06-14T13:03:49;24.80;40.50
20487;DHT22;10402;49.012;8.370;2023-06-14T13:06:23;24.90;40.60
20487;DHT22;10402;49.012;8.370;2023-06-14T13:08:50;25.00;40.60
20487;DHT22;10402;49.012;8.370;2023-06-14T13:11:15;25.10;40.60
20487;DHT22;10402;49.012;8.370;2023-06-14T13:13:41;25.10;40.50
20487;DHT22;10402;49.012;8.370;2023-06-14T13:16:07;25.00;40.50
20487;DHT22;10402;49.012;8.370;2023-06-14T13:18:32;25.10;40.50
20487;DHT22;10402;49.012;8.370;2023-06-14T13:20:58;25.10;40.30
20487;DHT22;10402;49.012;8.370;2023-06-14T13:23:24;25.10;40.10
20487;DHT22;10402;49.012;8.370;2023-06-14T13:25:49;25.10;40.20
20487;DHT22;10402;49.012;8.370;2023-06-14T13:28:16;25.10;40.20
20487;DHT22;10402;49.012;8.370;2023-06-14T13:30:42;25.20;40.10
20487;DHT22;10402;49.012;8.370;2023-06-14T13:33:07;25.20;40.00
20487;DHT22;10402;49.012;8.370;2023-06-14T13:35:33;25.10;39.90
20487;DHT22;10402;49.012;8.370;2023-06-14T13:37:58;25.20;40.00
20487;DHT22;10402;49.012;8.370;2023-06-14T13:40:24;25.10;39.80
20487;DHT22;10402;49.012;8.370;2023-06-14T13:42:50;25.10;39.80
20487;DHT22;10402;49.012;8.370;2023-06-14T13:45:15;25.10;39.70
20487;DHT22;10402;49.012;8.370;2023-06-14T13:47:41;25.10;39.60
20487;DHT22;10402;49.012;8.370;2023-06-14T13:50:07;25.20;39.60
20487;DHT22;10402;49.012;8.370;2023-06-14T13:52:32;25.20;39.50
20487;DHT22;10402;49.012;8.370;2023-06-14T13:54:58;25.20;39.50
20487;DHT22;10402;49.012;8.370;2023-06-14T13:57:25;25.20;39.50
20487;DHT22;10402;49.012;8.370;2023-06-14T13:59:51;25.30;39.40
20487;DHT22;10402;49.012;8.370;2023-06-14T14:02:18;25.30;39.50
20487;DHT22;10402;49.012;8.370;2023-06-14T14:04:45;25.30;39.20
20487;DHT22;10402;49.012;8.370;2023-06-14T14:07:16;25.20;39.30
20487;DHT22;10402;49.012;8.370;2023-06-14T14:09:42;25.10;39.30
20487;DHT22;10402;49.012;8.370;2023-06-14T14:12:08;25.00;39.40
20487;DHT22;10402;49.012;8.370;2023-06-14T14:14:34;24.90;39.40
20487;DHT22;10402;49.012;8.370;2023-06-14T14:16:59;24.90;39.70
20487;DHT22;10402;49.012;8.370;2023-06-14T14:19:25;25.00;39.80
20487;DHT22;10402;49.012;8.370;2023-06-14T14:21:51;25.00;39.70
20487;DHT22;10402;49.012;8.370;2023-06-14T14:24:18;25.00;39.70
20487;DHT22;10402;49.012;8.370;2023-06-14T14:26:44;25.10;39.60
20487;DHT22;10402;49.012;8.370;2023-06-14T14:29:12;25.10;39.30
20487;DHT22;10402;49.012;8.370;2023-06-14T14:31:38;25.20;39.40
20487;DHT22;10402;49.012;8.370;2023-06-14T14:34:04;25.20;39.20
20487;DHT22;10402;49.012;8.370;2023-06-14T14:36:30;25.30;39.20
20487;DHT22;10402;49.012;8.370;2023-06-14T14:38:55;25.30;39.00
20487;DHT22;10402;49.012;8.370;2023-06-14T14:41:21;25.40;38.70
20487;DHT22;10402;49.012;8.370;2023-06-14T14:43:46;25.30;38.70
20487;DHT22;10402;49.012;8.370;2023-06-14T14:46:12;25.40;38.70
20487;DHT22;10402;49.012;8.370;2023-06-14T14:48:37;25.50;38.70
20487;DHT22;10402;49.012;8.370;2023-06-14T14:51:03;25.60;38.50
20487;DHT22;10402;49.012;8.370;2023-06-14T14:53:29;25.60;38.50
20487;DHT22;10402;49.012;8.370;2023-06-14T14:55:54;25.70;38.20
20487;DHT22;10402;49.012;8.370;2023-06-14T14:58:20;25.80;38.20
20487;DHT22;10402;49.012;8.370;2023-06-14T15:00:46;25.80;38.00
20487;DHT22;10402;49.012;8.370;2023-06-14T15:03:12;25.80;37.90
20487;DHT22;10402;49.012;8.370;2023-06-14T15:05:38;25.90;37.90
20487;DHT22;10402;49.012;8.370;2023-06-14T15:08:04;26.00;37.80
20487;DHT22;10402;49.012;8.370;2023-06-14T15:10:35;26.00;37.80
20487;DHT22;10402;49.012;8.370;2023-06-14T15:13:01;26.00;37.80
20487;DHT22;10402;49.012;8.370;2023-06-14T15:15:26;26.00;37.80
20487;DHT22;10402;49.012;8.370;2023-06-14T15:17:52;25.90;37.40
20487;DHT22;10402;49.012;8.370;2023-06-14T15:20:17;25.80;37.40
20487;DHT22;10402;49.012;8.370;2023-06-14T15:22:43;25.80;37.50
20487;DHT22;10402;49.012;8.370;2023-06-14T15:25:09;25.70;37.60
20487;DHT22;10402;49.012;8.370;2023-06-14T15:27:34;25.70;37.70
20487;DHT22;10402;49.012;8.370;2023-06-14T15:30:00;25.60;37.60
20487;DHT22;10402;49.012;8.370;2023-06-14T15:32:25;25.60;37.70
20487;DHT22;10402;49.012;8.370;2023-06-14T15:34:51;25.50;37.60
20487;DHT22;10402;49.012;8.370;2023-06-14T15:37:16;25.50;37.60
20487;DHT22;10402;49.012;8.370;2023-06-14T15:39:42;25.50;37.50
20487;DHT22;10402;49.012;8.370;2023-06-14T15:42:07;25.50;37.50
20487;DHT22;10402;49.012;8.370;2023-06-14T15:44:33;25.60;37.60
20487;DHT22;10402;49.012;8.370;2023-06-14T15:46:59;25.60;37.60
20487;DHT22;10402;49.012;8.370;2023-06-14T15:49:24;25.50;37.50